sensor_id;sensor_type;location;lat;lon;timestamp;P1;durP1;ratioP1;P2;durP2;ratioP2
17606;SDS011;69222;52.242;20.980;2023-05-10T00:01:19;5.50;;;4.30;;
17606;SDS011;69222;52.242;20.980;2023-05-10T00:03:47;4.70;;;3.50;;
17606;SDS011;69222;52.242;20.980;2023-05-10T00:06:15;7.47;;;3.93;;
17606;SDS011;69222;52.242;20.980;2023-05-10T00:08:44;5.73;;;3.83;;
17606;SDS011;69222;52.242;20.980;2023-05-10T00:11:12;5.40;;;3.57;;
17606;SDS011;69222;52.242;20.980;2023-05-10T00:13:40;10.03;;;3.90;;
17606;SDS011;69222;52.242;20.980;2023-05-10T00:16:08;4.77;;;3.67;;
17606;SDS011;69222;52.242;20.980;2023-05-10T00:18:37;10.23;;;3.60;;
17606;SDS011;69222;52.242;20.980;2023-05-10T00:21:05;5.60;;;3.50;;
17606;SDS011;69222;52.242;20.980;2023-05-10T00:23:33;5.50;;;3.20;;
17606;SDS011;69222;52.242;20.980;2023-05-10T00:26:01;8.67;;;3.53;;
17606;SDS011;69222;52.242;20.980;2023-05-10T00:28:29;8.27;;;3.77;;
17606;SDS011;69222;52.242;20.980;2023-05-10T00:30:57;6.10;;;3.37;;
17606;SDS011;69222;52.242;20.980;2023-05-10T00:33:25;6.47;;;3.90;;
17606;SDS011;69222;52.242;20.980;2023-05-10T00:35:54;6.97;;;3.50;;
17606;SDS011;69222;52.242;20.980;2023-05-10T00:38:22;5.77;;;3.50;;
17606;SDS011;69222;52.242;20.980;2023-05-10T00:40:50;6.03;;;3.47;;
17606;SDS011;69222;52.242;20.980;2023-05-10T00:43:18;6.80;;;3.67;;
17606;SDS011;69222;52.242;20.980;2023-05-10T00:45:46;7.53;;;3.30;;
17606;SDS011;69222;52.242;20.980;2023-05-10T00:48:14;7.63;;;3.23;;
17606;SDS011;69222;52.242;20.980;2023-05-10T00:50:42;5.70;;;2.97;;
17606;SDS011;69222;52.242;20.980;2023-05-10T00:53:12;5.80;;;3.50;;
17606;SDS011;69222;52.242;20.980;2023-05-10T00:55:40;4.90;;;3.67;;
17606;SDS011;69222;52.242;20.980;2023-05-10T00:58:08;5.00;;;3.80;;
17606;SDS011;69222;52.242;20.980;2023-05-10T01:00:36;5.87;;;3.63;;
17606;SDS011;69222;52.242;20.980;2023-05-10T01:03:05;3.63;;;3.00;;
17606;SDS011;69222;52.242;20.980;2023-05-10T01:05:33;5.37;;;3.57;;
17606;SDS011;69222;52.242;20.980;2023-05-10T01:08:01;5.30;;;3.53;;
17606;SDS011;69222;52.242;20.980;2023-05-10T01:10:31;5.97;;;3.27;;
17606;SDS011;69222;52.242;20.980;2023-05-10T01:12:59;8.93;;;3.17;;
17606;SDS011;69222;52.242;20.980;2023-05-10T01:15:27;3.70;;;3.20;;
17606;SDS011;69222;52.242;20.980;2023-05-10T01:17:55;6.57;;;3.27;;
17606;SDS011;69222;52.242;20.980;2023-05-10T01:20:23;4.90;;;3.00;;
17606;SDS011;69222;52.242;20.980;2023-05-10T01:23:07;5.43;;;4.13;;
17606;SDS011;69222;52.242;20.980;2023-05-10T01:25:48;4.07;;;3.07;;
17606;SDS011;69222;52.242;20.980;2023-05-10T01:28:43;7.00;;;3.50;;
17606;SDS011;69222;52.242;20.980;2023-05-10T01:31:30;4.70;;;3.70;;
17606;SDS011;69222;52.242;20.980;2023-05-10T01:34:12;3.73;;;3.03;;
17606;SDS011;69222;52.242;20.980;2023-05-10T01:36:45;3.90;;;3.40;;
17606;SDS011;69222;52.242;20.980;2023-05-10T01:39:20;8.50;;;3.20;;
17606;SDS011;69222;52.242;20.980;2023-05-10T01:41:54;4.23;;;3.27;;
17606;SDS011;69222;52.242;20.980;2023-05-10T01:44:29;4.80;;;3.03;;
17606;SDS011;69222;52.242;20.980;2023-05-10T01:47:04;6.93;;;3.40;;
17606;SDS011;69222;52.242;20.980;2023-05-10T01:49:37;4.80;;;3.70;;
17606;SDS011;69222;52.242;20.980;2023-05-10T01:52:09;4.60;;;3.23;;
17606;SDS011;69222;52.242;20.980;2023-05-10T01:54:41;5.77;;;3.40;;
17606;SDS011;69222;52.242;20.980;2023-05-10T01:57:13;6.67;;;3.70;;
17606;SDS011;69222;52.242;20.980;2023-05-10T01:59:44;8.63;;;3.70;;
17606;SDS011;69222;52.242;20.980;2023-05-10T02:02:15;5.67;;;3.43;;
17606;SDS011;69222;52.242;20.980;2023-05-10T02:04:47;5.27;;;3.57;;
17606;SDS011;69222;52.242;20.980;2023-05-10T02:07:18;4.27;;;3.43;;
17606;SDS011;69222;52.242;20.980;2023-05-10T02:09:47;4.23;;;3.43;;
17606;SDS011;69222;52.242;20.980;2023-05-10T02:12:15;5.57;;;3.60;;
17606;SDS011;69222;52.242;20.980;2023-05-10T02:14:45;5.53;;;3.27;;
17606;SDS011;69222;52.242;20.980;2023-05-10T02:17:15;5.10;;;3.20;;
17606;SDS011;69222;52.242;20.980;2023-05-10T02:19:44;4.97;;;3.47;;
17606;SDS011;69222;52.242;20.980;2023-05-10T02:22:15;6.33;;;3.50;;
17606;SDS011;69222;52.242;20.980;2023-05-10T02:24:45;5.30;;;3.80;;
17606;SDS011;69222;52.242;20.980;2023-05-10T02:27:14;5.07;;;3.10;;
17606;SDS011;69222;52.242;20.980;2023-05-10T02:29:44;9.07;;;3.60;;
17606;SDS011;69222;52.242;20.980;2023-05-10T02:32:14;6.57;;;3.70;;
17606;SDS011;69222;52.242;20.980;2023-05-10T02:34:44;3.67;;;3.27;;
17606;SDS011;69222;52.242;20.980;2023-05-10T02:37:19;4.23;;;3.07;;
17606;SDS011;69222;52.242;20.980;2023-05-10T02:39:49;5.23;;;3.40;;
17606;SDS011;69222;52.242;20.980;2023-05-10T02:42:20;4.77;;;3.47;;
17606;SDS011;69222;52.242;20.980;2023-05-10T02:44:53;5.63;;;3.23;;
17606;SDS011;69222;52.242;20.980;2023-05-10T02:47:24;6.10;;;3.77;;
17606;SDS011;69222;52.242;20.980;2023-05-10T02:49:52;4.53;;;3.37;;
17606;SDS011;69222;52.242;20.980;2023-05-10T02:52:21;5.17;;;3.20;;
17606;SDS011;69222;52.242;20.980;2023-05-10T02:54:54;4.67;;;3.60;;
17606;SDS011;69222;52.242;20.980;2023-05-10T02:57:26;6.73;;;3.63;;
17606;SDS011;69222;52.242;20.980;2023-05-10T02:59:57;5.80;;;3.53;;
17606;SDS011;69222;52.242;20.980;2023-05-10T03:02:26;7.27;;;3.50;;
17606;SDS011;69222;52.242;20.980;2023-05-10T03:04:54;4.03;;;3.13;;
17606;SDS011;69222;52.242;20.980;2023-05-10T03:07:23;5.23;;;3.00;;
17606;SDS011;69222;52.242;20.980;2023-05-10T03:09:52;6.73;;;3.80;;
17606;SDS011;69222;52.242;20.980;2023-05-10T03:12:22;7.13;;;3.60;;
17606;SDS011;69222;52.242;20.980;2023-05-10T03:15:00;5.37;;;3.47;;
17606;SDS011;69222;52.242;20.980;2023-05-10T03:17:35;4.20;;;3.00;;
17606;SDS011;69222;52.242;20.980;2023-05-10T03:20:08;5.73;;;3.30;;
17606;SDS011;69222;52.242;20.980;2023-05-10T03:22:40;5.07;;;3.50;;
17606;SDS011;69222;52.242;20.980;2023-05-10T03:25:15;7.27;;;3.37;;
17606;SDS011;69222;52.242;20.980;2023-05-10T03:27:44;6.33;;;3.33;;
17606;SDS011;69222;52.242;20.980;2023-05-10T03:30:13;4.63;;;3.33;;
17606;SDS011;69222;52.242;20.980;2023-05-10T03:32:42;4.57;;;3.03;;
17606;SDS011;69222;52.242;20.980;2023-05-10T03:35:10;5.17;;;3.33;;
17606;SDS011;69222;52.242;20.980;2023-05-10T03:37:40;6.80;;;3.23;;
17606;SDS011;69222;52.242;20.980;2023-05-10T03:40:08;4.83;;;2.83;;
17606;SDS011;69222;52.242;20.980;2023-05-10T03:42:36;5.57;;;3.67;;
17606;SDS011;69222;52.242;20.980;2023-05-10T03:45:05;6.10;;;3.60;;
17606;SDS011;69222;52.242;20.980;2023-05-10T03:47:34;5.33;;;3.27;;
17606;SDS011;69222;52.242;20.980;2023-05-10T03:50:01;5.40;;;3.57;;
17606;SDS011;69222;52.242;20.980;2023-05-10T03:52:30;7.87;;;3.13;;
17606;SDS011;69222;52.242;20.980;2023-05-10T03:54:59;6.70;;;3.57;;
17606;SDS011;69222;52.242;20.980;2023-05-10T03:57:29;5.07;;;3.37;;
17606;SDS011;69222;52.242;20.980;2023-05-10T03:59:58;4.03;;;3.33;;
17606;SDS011;69222;52.242;20.980;2023-05-10T04:02:26;6.27;;;3.10;;
17606;SDS011;69222;52.242;20.980;2023-05-10T04:04:56;11.97;;;3.77;;
17606;SDS011;69222;52.242;20.980;2023-05-10T04:07:24;6.40;;;3.10;;
17606;SDS011;69222;52.242;20.980;2023-05-10T04:09:52;5.27;;;3.23;;
17606;SDS011;69222;52.242;20.980;2023-05-10T04:12:21;6.30;;;3.60;;
17606;SDS011;69222;52.242;20.980;2023-05-10T04:14:49;7.23;;;3.40;;
17606;SDS011;69222;52.242;20.980;2023-05-10T04:17:17;3.27;;;2.77;;
17606;SDS011;69222;52.242;20.980;2023-05-10T04:19:45;5.93;;;3.17;;
17606;SDS011;69222;52.242;20.980;2023-05-10T04:22:13;5.23;;;3.33;;
17606;SDS011;69222;52.242;20.980;2023-05-10T04:24:41;5.63;;;3.47;;
17606;SDS011;69222;52.242;20.980;2023-05-10T04:27:09;7.40;;;3.70;;
17606;SDS011;69222;52.242;20.980;2023-05-10T04:29:39;6.50;;;3.77;;
17606;SDS011;69222;52.242;20.980;2023-05-10T04:32:08;6.27;;;3.70;;
17606;SDS011;69222;52.242;20.980;2023-05-10T04:34:36;5.43;;;3.40;;
17606;SDS011;69222;52.242;20.980;2023-05-10T04:37:04;3.80;;;3.20;;
17606;SDS011;69222;52.242;20.980;2023-05-10T04:39:33;5.83;;;3.63;;
17606;SDS011;69222;52.242;20.980;2023-05-10T04:42:02;6.80;;;4.03;;
17606;SDS011;69222;52.242;20.980;2023-05-10T04:44:31;4.17;;;3.23;;
17606;SDS011;69222;52.242;20.980;2023-05-10T04:47:01;6.70;;;3.23;;
17606;SDS011;69222;52.242;20.980;2023-05-10T04:49:29;6.73;;;3.43;;
17606;SDS011;69222;52.242;20.980;2023-05-10T04:51:57;4.30;;;3.10;;
17606;SDS011;69222;52.242;20.980;2023-05-10T04:54:25;5.17;;;3.77;;
17606;SDS011;69222;52.242;20.980;2023-05-10T04:56:53;7.53;;;3.10;;
17606;SDS011;69222;52.242;20.980;2023-05-10T04:59:21;6.43;;;3.50;;
17606;SDS011;69222;52.242;20.980;2023-05-10T05:01:49;7.07;;;3.80;;
17606;SDS011;69222;52.242;20.980;2023-05-10T05:04:18;7.23;;;3.63;;
17606;SDS011;69222;52.242;20.980;2023-05-10T05:06:46;7.93;;;3.43;;
17606;SDS011;69222;52.242;20.980;2023-05-10T05:09:16;6.17;;;3.40;;
17606;SDS011;69222;52.242;20.980;2023-05-10T05:11:44;5.33;;;3.30;;
17606;SDS011;69222;52.242;20.980;2023-05-10T05:14:12;5.63;;;3.70;;
17606;SDS011;69222;52.242;20.980;2023-05-10T05:16:39;6.60;;;3.70;;
17606;SDS011;69222;52.242;20.980;2023-05-10T05:19:07;7.63;;;3.67;;
17606;SDS011;69222;52.242;20.980;2023-05-10T05:21:37;5.05;;;3.50;;
17606;SDS011;69222;52.242;20.980;2023-05-10T05:24:05;4.63;;;3.78;;
17606;SDS011;69222;52.242;20.980;2023-05-10T05:26:34;4.13;;;3.10;;
17606;SDS011;69222;52.242;20.980;2023-05-10T05:29:02;5.60;;;3.38;;
17606;SDS011;69222;52.242;20.980;2023-05-10T05:31:30;5.20;;;3.50;;
17606;SDS011;69222;52.242;20.980;2023-05-10T05:33:58;6.33;;;3.87;;
17606;SDS011;69222;52.242;20.980;2023-05-10T05:36:26;13.23;;;3.57;;
17606;SDS011;69222;52.242;20.980;2023-05-10T05:38:55;4.88;;;3.17;;
17606;SDS011;69222;52.242;20.980;2023-05-10T05:41:23;4.40;;;3.28;;
17606;SDS011;69222;52.242;20.980;2023-05-10T05:43:51;6.95;;;3.45;;
17606;SDS011;69222;52.242;20.980;2023-05-10T05:46:19;5.70;;;3.25;;
17606;SDS011;69222;52.242;20.980;2023-05-10T05:48:47;5.55;;;3.10;;
17606;SDS011;69222;52.242;20.980;2023-05-10T05:51:15;7.50;;;2.92;;
17606;SDS011;69222;52.242;20.980;2023-05-10T05:53:43;6.85;;;3.03;;
17606;SDS011;69222;52.242;20.980;2023-05-10T05:56:12;9.65;;;3.65;;
17606;SDS011;69222;52.242;20.980;2023-05-10T05:58:40;5.20;;;2.90;;
17606;SDS011;69222;52.242;20.980;2023-05-10T06:01:08;3.65;;;3.10;;
17606;SDS011;69222;52.242;20.980;2023-05-10T06:03:36;6.32;;;2.90;;
17606;SDS011;69222;52.242;20.980;2023-05-10T06:06:05;5.90;;;3.45;;
17606;SDS011;69222;52.242;20.980;2023-05-10T06:08:33;6.72;;;2.85;;
17606;SDS011;69222;52.242;20.980;2023-05-10T06:11:01;5.00;;;3.30;;
17606;SDS011;69222;52.242;20.980;2023-05-10T06:13:31;5.63;;;3.08;;
17606;SDS011;69222;52.242;20.980;2023-05-10T06:16:01;6.57;;;3.95;;
17606;SDS011;69222;52.242;20.980;2023-05-10T06:18:29;9.77;;;3.13;;
17606;SDS011;69222;52.242;20.980;2023-05-10T06:20:57;11.15;;;3.33;;
17606;SDS011;69222;52.242;20.980;2023-05-10T06:23:26;3.95;;;3.15;;
17606;SDS011;69222;52.242;20.980;2023-05-10T06:25:54;6.90;;;3.08;;
17606;SDS011;69222;52.242;20.980;2023-05-10T06:28:21;6.28;;;2.78;;
17606;SDS011;69222;52.242;20.980;2023-05-10T06:30:51;6.55;;;3.05;;
17606;SDS011;69222;52.242;20.980;2023-05-10T06:33:19;6.45;;;2.67;;
17606;SDS011;69222;52.242;20.980;2023-05-10T06:35:47;9.07;;;3.20;;
17606;SDS011;69222;52.242;20.980;2023-05-10T06:38:15;9.55;;;3.42;;
17606;SDS011;69222;52.242;20.980;2023-05-10T06:40:43;6.70;;;2.72;;
17606;SDS011;69222;52.242;20.980;2023-05-10T06:43:11;4.93;;;2.85;;
17606;SDS011;69222;52.242;20.980;2023-05-10T06:45:39;4.13;;;2.78;;
17606;SDS011;69222;52.242;20.980;2023-05-10T06:48:09;5.10;;;3.03;;
17606;SDS011;69222;52.242;20.980;2023-05-10T06:50:37;5.57;;;3.13;;
17606;SDS011;69222;52.242;20.980;2023-05-10T06:53:05;7.22;;;3.88;;
17606;SDS011;69222;52.242;20.980;2023-05-10T06:55:33;8.13;;;4.20;;
17606;SDS011;69222;52.242;20.980;2023-05-10T06:58:01;4.93;;;3.33;;
17606;SDS011;69222;52.242;20.980;2023-05-10T07:00:29;9.85;;;5.85;;
17606;SDS011;69222;52.242;20.980;2023-05-10T07:02:57;4.85;;;3.03;;
17606;SDS011;69222;52.242;20.980;2023-05-10T07:05:27;8.65;;;3.00;;
17606;SDS011;69222;52.242;20.980;2023-05-10T07:07:55;4.38;;;3.28;;
17606;SDS011;69222;52.242;20.980;2023-05-10T07:10:23;5.60;;;3.55;;
17606;SDS011;69222;52.242;20.980;2023-05-10T07:12:51;6.32;;;3.65;;
17606;SDS011;69222;52.242;20.980;2023-05-10T07:15:22;6.53;;;2.33;;
17606;SDS011;69222;52.242;20.980;2023-05-10T07:17:50;2.75;;;2.20;;
17606;SDS011;69222;52.242;20.980;2023-05-10T07:20:19;3.70;;;2.50;;
17606;SDS011;69222;52.242;20.980;2023-05-10T07:22:48;4.40;;;2.50;;
17606;SDS011;69222;52.242;20.980;2023-05-10T07:25:16;3.63;;;2.45;;
17606;SDS011;69222;52.242;20.980;2023-05-10T07:27:44;3.15;;;2.13;;
17606;SDS011;69222;52.242;20.980;2023-05-10T07:30:15;6.20;;;1.67;;
17606;SDS011;69222;52.242;20.980;2023-05-10T07:32:46;2.88;;;1.80;;
17606;SDS011;69222;52.242;20.980;2023-05-10T07:35:14;1.70;;;1.45;;
17606;SDS011;69222;52.242;20.980;2023-05-10T07:37:44;3.90;;;1.83;;
17606;SDS011;69222;52.242;20.980;2023-05-10T07:40:14;1.85;;;1.60;;
17606;SDS011;69222;52.242;20.980;2023-05-10T07:42:42;4.07;;;1.83;;
17606;SDS011;69222;52.242;20.980;2023-05-10T07:45:12;7.47;;;2.00;;
17606;SDS011;69222;52.242;20.980;2023-05-10T07:47:41;3.40;;;1.95;;
17606;SDS011;69222;52.242;20.980;2023-05-10T07:50:09;6.05;;;1.73;;
17606;SDS011;69222;52.242;20.980;2023-05-10T07:52:37;4.28;;;1.70;;
17606;SDS011;69222;52.242;20.980;2023-05-10T07:55:05;4.25;;;1.70;;
17606;SDS011;69222;52.242;20.980;2023-05-10T07:57:35;3.70;;;2.10;;
17606;SDS011;69222;52.242;20.980;2023-05-10T08:00:04;2.58;;;1.67;;
17606;SDS011;69222;52.242;20.980;2023-05-10T08:02:32;6.32;;;1.95;;
17606;SDS011;69222;52.242;20.980;2023-05-10T08:05:01;3.95;;;1.88;;
17606;SDS011;69222;52.242;20.980;2023-05-10T08:07:30;4.72;;;1.70;;
17606;SDS011;69222;52.242;20.980;2023-05-10T08:09:58;3.03;;;1.67;;
17606;SDS011;69222;52.242;20.980;2023-05-10T08:12:25;3.13;;;1.77;;
17606;SDS011;69222;52.242;20.980;2023-05-10T08:14:55;5.78;;;2.35;;
17606;SDS011;69222;52.242;20.980;2023-05-10T08:17:23;4.40;;;1.70;;
17606;SDS011;69222;52.242;20.980;2023-05-10T08:19:52;3.92;;;1.60;;
17606;SDS011;69222;52.242;20.980;2023-05-10T08:22:20;3.10;;;1.75;;
17606;SDS011;69222;52.242;20.980;2023-05-10T08:24:49;2.75;;;1.80;;
17606;SDS011;69222;52.242;20.980;2023-05-10T08:27:17;2.28;;;1.23;;
17606;SDS011;69222;52.242;20.980;2023-05-10T08:29:45;2.42;;;1.45;;
17606;SDS011;69222;52.242;20.980;2023-05-10T08:32:17;1.90;;;1.60;;
17606;SDS011;69222;52.242;20.980;2023-05-10T08:34:45;3.47;;;1.58;;
17606;SDS011;69222;52.242;20.980;2023-05-10T08:37:13;6.15;;;2.00;;
17606;SDS011;69222;52.242;20.980;2023-05-10T08:39:41;2.10;;;1.48;;
17606;SDS011;69222;52.242;20.980;2023-05-10T08:42:09;3.78;;;1.70;;
17606;SDS011;69222;52.242;20.980;2023-05-10T08:44:38;4.38;;;1.73;;
17606;SDS011;69222;52.242;20.980;2023-05-10T08:47:06;2.38;;;1.83;;
17606;SDS011;69222;52.242;20.980;2023-05-10T08:49:37;4.38;;;1.98;;
17606;SDS011;69222;52.242;20.980;2023-05-10T08:52:06;5.88;;;1.83;;
17606;SDS011;69222;52.242;20.980;2023-05-10T08:54:35;2.67;;;1.20;;
17606;SDS011;69222;52.242;20.980;2023-05-10T08:57:04;2.08;;;1.60;;
17606;SDS011;69222;52.242;20.980;2023-05-10T08:59:32;3.08;;;1.50;;
17606;SDS011;69222;52.242;20.980;2023-05-10T09:02:00;2.50;;;1.85;;
17606;SDS011;69222;52.242;20.980;2023-05-10T09:04:28;2.67;;;1.75;;
17606;SDS011;69222;52.242;20.980;2023-05-10T09:06:58;2.35;;;1.60;;
17606;SDS011;69222;52.242;20.980;2023-05-10T09:09:27;3.58;;;1.90;;
17606;SDS011;69222;52.242;20.980;2023-05-10T09:11:56;3.45;;;1.70;;
17606;SDS011;69222;52.242;20.980;2023-05-10T09:14:24;1.70;;;1.60;;
17606;SDS011;69222;52.242;20.980;2023-05-10T09:16:53;2.80;;;2.05;;
17606;SDS011;69222;52.242;20.980;2023-05-10T09:19:22;4.20;;;2.53;;
17606;SDS011;69222;52.242;20.980;2023-05-10T09:21:50;3.83;;;2.00;;
17606;SDS011;69222;52.242;20.980;2023-05-10T09:24:19;2.40;;;1.48;;
17606;SDS011;69222;52.242;20.980;2023-05-10T09:26:52;4.72;;;2.58;;
17606;SDS011;69222;52.242;20.980;2023-05-10T09:29:20;1.63;;;1.52;;
17606;SDS011;69222;52.242;20.980;2023-05-10T09:31:49;2.53;;;2.08;;
17606;SDS011;69222;52.242;20.980;2023-05-10T09:34:19;3.13;;;1.60;;
17606;SDS011;69222;52.242;20.980;2023-05-10T09:36:51;3.80;;;1.70;;
17606;SDS011;69222;52.242;20.980;2023-05-10T09:39:22;3.85;;;1.67;;
17606;SDS011;69222;52.242;20.980;2023-05-10T09:41:58;3.92;;;1.85;;
17606;SDS011;69222;52.242;20.980;2023-05-10T09:44:27;3.17;;;1.88;;
17606;SDS011;69222;52.242;20.980;2023-05-10T09:46:54;3.40;;;2.03;;
17606;SDS011;69222;52.242;20.980;2023-05-10T09:49:22;3.65;;;1.88;;
17606;SDS011;69222;52.242;20.980;2023-05-10T09:52:00;2.60;;;1.50;;
17606;SDS011;69222;52.242;20.980;2023-05-10T09:54:31;4.45;;;1.73;;
17606;SDS011;69222;52.242;20.980;2023-05-10T09:56:59;1.92;;;1.67;;
17606;SDS011;69222;52.242;20.980;2023-05-10T09:59:27;2.40;;;1.70;;
17606;SDS011;69222;52.242;20.980;2023-05-10T10:01:56;2.17;;;1.60;;
17606;SDS011;69222;52.242;20.980;2023-05-10T10:04:25;2.55;;;1.90;;
17606;SDS011;69222;52.242;20.980;2023-05-10T10:07:00;2.58;;;2.03;;
17606;SDS011;69222;52.242;20.980;2023-05-10T10:09:31;2.70;;;1.90;;
17606;SDS011;69222;52.242;20.980;2023-05-10T10:12:00;3.10;;;1.70;;
17606;SDS011;69222;52.242;20.980;2023-05-10T10:14:28;8.30;;;1.67;;
17606;SDS011;69222;52.242;20.980;2023-05-10T10:16:56;3.60;;;1.98;;
17606;SDS011;69222;52.242;20.980;2023-05-10T10:19:30;3.88;;;1.55;;
17606;SDS011;69222;52.242;20.980;2023-05-10T10:22:00;4.13;;;2.05;;
17606;SDS011;69222;52.242;20.980;2023-05-10T10:24:30;1.55;;;1.42;;
17606;SDS011;69222;52.242;20.980;2023-05-10T10:26:59;2.90;;;1.75;;
17606;SDS011;69222;52.242;20.980;2023-05-10T10:29:36;2.83;;;1.75;;
17606;SDS011;69222;52.242;20.980;2023-05-10T10:32:10;1.88;;;1.77;;
17606;SDS011;69222;52.242;20.980;2023-05-10T10:34:47;4.32;;;1.60;;
17606;SDS011;69222;52.242;20.980;2023-05-10T10:37:15;4.20;;;1.77;;
17606;SDS011;69222;52.242;20.980;2023-05-10T10:39:45;7.60;;;1.98;;
17606;SDS011;69222;52.242;20.980;2023-05-10T10:45:16;5.40;;;1.60;;
17606;SDS011;69222;52.242;20.980;2023-05-10T10:47:44;2.58;;;1.45;;
17606;SDS011;69222;52.242;20.980;2023-05-10T10:50:12;4.85;;;2.00;;
17606;SDS011;69222;52.242;20.980;2023-05-10T10:52:42;2.42;;;1.35;;
17606;SDS011;69222;52.242;20.980;2023-05-10T10:55:13;2.17;;;1.23;;
17606;SDS011;69222;52.242;20.980;2023-05-10T10:57:44;3.53;;;1.65;;
17606;SDS011;69222;52.242;20.980;2023-05-10T11:00:20;3.33;;;1.80;;
17606;SDS011;69222;52.242;20.980;2023-05-10T11:02:54;4.05;;;1.90;;
17606;SDS011;69222;52.242;20.980;2023-05-10T11:08:18;3.58;;;1.85;;
17606;SDS011;69222;52.242;20.980;2023-05-10T11:11:02;5.32;;;1.77;;
17606;SDS011;69222;52.242;20.980;2023-05-10T11:13:34;4.07;;;1.95;;
17606;SDS011;69222;52.242;20.980;2023-05-10T11:16:14;3.78;;;1.88;;
17606;SDS011;69222;52.242;20.980;2023-05-10T11:18:54;2.63;;;1.90;;
17606;SDS011;69222;52.242;20.980;2023-05-10T11:21:26;3.38;;;1.60;;
17606;SDS011;69222;52.242;20.980;2023-05-10T11:23:54;3.72;;;1.88;;
17606;SDS011;69222;52.242;20.980;2023-05-10T11:26:25;3.67;;;1.77;;
17606;SDS011;69222;52.242;20.980;2023-05-10T11:28:57;5.03;;;1.90;;
17606;SDS011;69222;52.242;20.980;2023-05-10T11:31:27;3.00;;;1.58;;
17606;SDS011;69222;52.242;20.980;2023-05-10T11:33:56;2.65;;;1.80;;
17606;SDS011;69222;52.242;20.980;2023-05-10T11:36:25;1.83;;;1.70;;
17606;SDS011;69222;52.242;20.980;2023-05-10T11:38:55;3.40;;;1.80;;
17606;SDS011;69222;52.242;20.980;2023-05-10T11:41:29;3.28;;;1.92;;
17606;SDS011;69222;52.242;20.980;2023-05-10T11:43:58;3.38;;;2.05;;
17606;SDS011;69222;52.242;20.980;2023-05-10T11:46:26;3.65;;;1.85;;
17606;SDS011;69222;52.242;20.980;2023-05-10T11:48:55;3.72;;;2.22;;
17606;SDS011;69222;52.242;20.980;2023-05-10T11:51:28;3.47;;;2.00;;
17606;SDS011;69222;52.242;20.980;2023-05-10T11:53:56;4.30;;;1.95;;
17606;SDS011;69222;52.242;20.980;2023-05-10T11:56:25;2.30;;;1.60;;
17606;SDS011;69222;52.242;20.980;2023-05-10T11:58:54;3.22;;;2.13;;
17606;SDS011;69222;52.242;20.980;2023-05-10T12:01:23;2.63;;;1.80;;
17606;SDS011;69222;52.242;20.980;2023-05-10T12:03:52;2.70;;;2.03;;
17606;SDS011;69222;52.242;20.980;2023-05-10T12:06:25;4.65;;;2.05;;
17606;SDS011;69222;52.242;20.980;2023-05-10T12:08:54;2.80;;;1.83;;
17606;SDS011;69222;52.242;20.980;2023-05-10T12:11:25;2.20;;;1.83;;
17606;SDS011;69222;52.242;20.980;2023-05-10T12:13:54;3.78;;;1.60;;
17606;SDS011;69222;52.242;20.980;2023-05-10T12:16:24;3.58;;;1.92;;
17606;SDS011;69222;52.242;20.980;2023-05-10T12:18:53;3.35;;;1.80;;
17606;SDS011;69222;52.242;20.980;2023-05-10T12:21:26;7.55;;;1.88;;
17606;SDS011;69222;52.242;20.980;2023-05-10T12:23:59;4.30;;;1.63;;
17606;SDS011;69222;52.242;20.980;2023-05-10T12:26:29;2.45;;;1.88;;
17606;SDS011;69222;52.242;20.980;2023-05-10T12:29:11;4.38;;;2.17;;
17606;SDS011;69222;52.242;20.980;2023-05-10T12:31:49;4.72;;;1.98;;
17606;SDS011;69222;52.242;20.980;2023-05-10T12:34:25;5.18;;;2.00;;
17606;SDS011;69222;52.242;20.980;2023-05-10T12:36:53;4.45;;;1.83;;
17606;SDS011;69222;52.242;20.980;2023-05-10T12:39:22;1.90;;;1.52;;
17606;SDS011;69222;52.242;20.980;2023-05-10T12:41:52;4.00;;;1.73;;
17606;SDS011;69222;52.242;20.980;2023-05-10T12:44:20;2.78;;;1.75;;
17606;SDS011;69222;52.242;20.980;2023-05-10T12:46:48;4.90;;;2.08;;
17606;SDS011;69222;52.242;20.980;2023-05-10T12:49:16;3.80;;;1.90;;
17606;SDS011;69222;52.242;20.980;2023-05-10T12:51:45;2.95;;;1.90;;
17606;SDS011;69222;52.242;20.980;2023-05-10T12:54:13;2.75;;;1.88;;
17606;SDS011;69222;52.242;20.980;2023-05-10T12:56:40;3.40;;;1.80;;
17606;SDS011;69222;52.242;20.980;2023-05-10T12:59:10;4.60;;;1.80;;
17606;SDS011;69222;52.242;20.980;2023-05-10T13:01:38;3.85;;;1.63;;
17606;SDS011;69222;52.242;20.980;2023-05-10T13:04:06;4.88;;;1.80;;
17606;SDS011;69222;52.242;20.980;2023-05-10T13:06:34;2.85;;;1.55;;
17606;SDS011;69222;52.242;20.980;2023-05-10T13:09:03;2.45;;;1.80;;
17606;SDS011;69222;52.242;20.980;2023-05-10T13:11:31;2.35;;;1.85;;
17606;SDS011;69222;52.242;20.980;2023-05-10T13:13:59;2.05;;;1.50;;
17606;SDS011;69222;52.242;20.980;2023-05-10T13:16:33;2.65;;;1.63;;
17606;SDS011;69222;52.242;20.980;2023-05-10T13:19:03;2.10;;;1.67;;
17606;SDS011;69222;52.242;20.980;2023-05-10T13:21:35;5.40;;;2.05;;
17606;SDS011;69222;52.242;20.980;2023-05-10T13:24:03;2.33;;;1.90;;
17606;SDS011;69222;52.242;20.980;2023-05-10T13:26:32;3.13;;;1.70;;
17606;SDS011;69222;52.242;20.980;2023-05-10T13:29:07;4.97;;;2.05;;
17606;SDS011;69222;52.242;20.980;2023-05-10T13:31:36;5.32;;;1.80;;
17606;SDS011;69222;52.242;20.980;2023-05-10T13:34:05;2.05;;;1.73;;
17606;SDS011;69222;52.242;20.980;2023-05-10T13:36:34;3.45;;;1.63;;
17606;SDS011;69222;52.242;20.980;2023-05-10T13:39:02;1.98;;;1.30;;
17606;SDS011;69222;52.242;20.980;2023-05-10T13:41:31;1.88;;;1.77;;
17606;SDS011;69222;52.242;20.980;2023-05-10T13:44:00;3.00;;;2.35;;
17606;SDS011;69222;52.242;20.980;2023-05-10T13:46:28;2.78;;;1.83;;
17606;SDS011;69222;52.242;20.980;2023-05-10T13:48:58;2.78;;;1.48;;
17606;SDS011;69222;52.242;20.980;2023-05-10T13:51:25;4.50;;;1.85;;
17606;SDS011;69222;52.242;20.980;2023-05-10T13:53:53;4.75;;;1.70;;
17606;SDS011;69222;52.242;20.980;2023-05-10T13:56:22;4.22;;;1.67;;
17606;SDS011;69222;52.242;20.980;2023-05-10T13:58:50;2.13;;;1.67;;
17606;SDS011;69222;52.242;20.980;2023-05-10T14:01:18;5.57;;;1.63;;
17606;SDS011;69222;52.242;20.980;2023-05-10T14:03:47;2.25;;;1.35;;
17606;SDS011;69222;52.242;20.980;2023-05-10T14:06:16;2.53;;;1.50;;
17606;SDS011;69222;52.242;20.980;2023-05-10T14:08:45;1.75;;;1.65;;
17606;SDS011;69222;52.242;20.980;2023-05-10T14:11:14;2.15;;;1.63;;
17606;SDS011;69222;52.242;20.980;2023-05-10T14:13:42;4.35;;;1.35;;
17606;SDS011;69222;52.242;20.980;2023-05-10T14:16:10;2.63;;;1.80;;
17606;SDS011;69222;52.242;20.980;2023-05-10T14:18:41;3.83;;;1.52;;
17606;SDS011;69222;52.242;20.980;2023-05-10T14:21:09;1.80;;;1.50;;
17606;SDS011;69222;52.242;20.980;2023-05-10T14:23:39;2.40;;;1.65;;
17606;SDS011;69222;52.242;20.980;2023-05-10T14:26:07;1.85;;;1.60;;
17606;SDS011;69222;52.242;20.980;2023-05-10T14:28:36;3.38;;;1.58;;
17606;SDS011;69222;52.242;20.980;2023-05-10T14:31:05;2.80;;;2.05;;
17606;SDS011;69222;52.242;20.980;2023-05-10T14:33:34;3.53;;;1.60;;
17606;SDS011;69222;52.242;20.980;2023-05-10T14:36:05;2.85;;;1.98;;
17606;SDS011;69222;52.242;20.980;2023-05-10T14:38:35;2.35;;;1.67;;
17606;SDS011;69222;52.242;20.980;2023-05-10T14:41:05;3.33;;;1.70;;
17606;SDS011;69222;52.242;20.980;2023-05-10T14:43:35;4.28;;;1.88;;
17606;SDS011;69222;52.242;20.980;2023-05-10T14:46:03;1.77;;;1.42;;
17606;SDS011;69222;52.242;20.980;2023-05-10T14:48:32;4.50;;;1.63;;
17606;SDS011;69222;52.242;20.980;2023-05-10T14:51:00;1.88;;;1.73;;
17606;SDS011;69222;52.242;20.980;2023-05-10T14:53:28;2.22;;;1.63;;